Time;durP1;ratioP1;P1;durP2;ratioP2;P2;SDS_P1;SDS_P2;PMS_P1;PMS_P2;Temp;Humidity;BMP_temperature;BMP_pressure;BME280_temperature;BME280_humidity;BME280_pressure;Samples;Min_cycle;Max_cycle;Signal;HPM_P1;HPM_P2
2022/01/26 10:15:32;;;;;;;33.57;25.17;;;2.80;99.90;;;;;;5127952;28;20489;-74
2022/01/26 10:18:09;;;;;;;36.53;25.57;;;2.90;99.90;;;;;;5127839;27;20476;-76
2022/01/26 10:20:44;;;;;;;32.60;24.97;;;3.10;99.90;;;;;;5128138;27;20533;-76
2022/01/26 10:23:16;;;;;;;39.97;25.70;;;3.20;99.90;;;;;;5127940;27;20452;-74
2022/01/26 10:25:44;;;;;;;42.90;26.67;;;3.30;99.90;;;;;;5127510;27;20462;-74
2022/01/26 10:28:13;;;;;;;42.03;28.93;;;3.30;99.90;;;;;;5127625;27;20451;-75
2022/01/26 10:30:45;;;;;;;39.73;25.17;;;3.20;99.90;;;;;;5127571;27;20483;-75
2022/01/26 10:33:13;;;;;;;34.03;24.33;;;3.30;99.90;;;;;;5127694;27;20437;-75
2022/01/26 10:35:39;;;;;;;41.20;27.20;;;3.10;99.90;;;;;;5127907;27;20450;-75
2022/01/26 10:38:07;;;;;;;49.57;30.30;;;3.10;99.90;;;;;;5127642;27;20455;-74
2022/01/26 10:40:35;;;;;;;38.23;27.37;;;3.30;99.90;;;;;;5127144;27;20469;-75
2022/01/26 10:43:06;;;;;;;35.67;26.90;;;3.50;99.90;;;;;;5127443;27;20506;-75
2022/01/26 10:45:46;;;;;;;41.53;29.70;;;3.60;99.90;;;;;;5127646;27;20448;-75
2022/01/26 10:48:21;;;;;;;38.57;28.67;;;3.30;99.90;;;;;;5127403;27;20453;-75
2022/01/26 10:51:20;;;;;;;41.60;27.70;;;3.00;99.90;;;;;;5127170;27;20477;-77
2022/01/26 10:53:49;;;;;;;34.03;27.53;;;2.80;99.90;;;;;;5127085;28;20940;-76
2022/01/26 10:56:16;;;;;;;48.20;29.97;;;2.70;99.90;;;;;;5127076;27;20820;-75
2022/01/26 10:58:43;;;;;;;52.17;29.43;;;2.70;99.90;;;;;;5126772;27;20870;-76
2022/01/26 11:01:11;;;;;;;38.23;26.83;;;2.80;99.90;;;;;;5127023;27;20486;-76
2022/01/26 11:03:39;;;;;;;44.10;28.23;;;2.90;99.90;;;;;;5127055;27;20473;-76
2022/01/26 11:06:08;;;;;;;38.30;28.03;;;3.00;99.90;;;;;;5126916;27;20450;-76
2022/01/26 11:08:40;;;;;;;35.00;25.90;;;3.20;99.90;;;;;;5126764;27;20447;-75
2022/01/26 11:11:07;;;;;;;39.03;26.13;;;3.40;99.90;;;;;;5126780;27;20488;-75
2022/01/26 11:13:36;;;;;;;36.93;24.33;;;3.30;99.90;;;;;;5112632;28;20455;-75
2022/01/26 11:16:12;;;;;;;38.40;26.53;;;3.30;99.90;;;;;;5113080;28;20818;-75
2022/01/26 11:18:51;;;;;;;36.33;27.50;;;3.40;99.90;;;;;;5113185;28;20451;-75
2022/01/26 11:21:29;;;;;;;36.30;24.83;;;3.40;99.90;;;;;;5112991;28;20510;-75
2022/01/26 11:24:10;;;;;;;47.90;27.20;;;3.20;99.90;;;;;;5113003;28;20801;-75
2022/01/26 11:26:41;;;;;;;41.60;26.67;;;3.10;99.90;;;;;;5113169;28;20453;-75
2022/01/26 11:29:16;;;;;;;39.20;24.57;;;3.10;99.90;;;;;;5113147;27;20516;-75
2022/01/26 11:31:44;;;;;;;42.10;28.30;;;3.10;99.90;;;;;;5112751;28;20487;-76
2022/01/26 11:34:11;;;;;;;37.87;25.33;;;3.20;99.90;;;;;;5112690;28;20452;-76
2022/01/26 11:36:41;;;;;;;36.07;26.83;;;3.30;99.90;;;;;;5112708;28;20454;-75
2022/01/26 11:42:21;;;;;;;41.90;25.80;;;3.40;99.90;;;;;;5112531;28;20899;-75
2022/01/26 11:45:07;;;;;;;46.30;29.00;;;3.40;99.90;;;;;;5112627;28;20453;-76
2022/01/26 11:47:37;;;;;;;40.30;28.27;;;3.10;99.90;;;;;;5112365;28;20451;-75
2022/01/26 11:50:08;;;;;;;39.10;26.30;;;3.10;99.90;;;;;;5112219;28;20454;-74
2022/01/26 11:52:39;;;;;;;40.50;27.17;;;3.00;99.90;;;;;;5112273;28;20441;-73
2022/01/26 11:55:21;;;;;;;42.53;29.03;;;2.90;99.90;;;;;;5112509;28;20481;-73
2022/01/26 11:57:50;;;;;;;48.63;28.47;;;2.70;99.90;;;;;;5112199;28;20460;-75
2022/01/26 12:00:34;;;;;;;44.27;29.57;;;2.70;99.90;;;;;;5112160;28;20460;-74
2022/01/26 12:03:02;;;;;;;47.73;28.40;;;2.50;99.90;;;;;;5111860;28;20462;-74
2022/01/26 12:05:28;;;;;;;43.33;29.67;;;2.30;99.90;;;;;;5112291;28;20452;-74
2022/01/26 12:07:57;;;;;;;43.77;27.00;;;2.40;99.90;;;;;;5112310;28;20454;-73
2022/01/26 12:10:28;;;;;;;39.73;25.53;;;2.40;99.90;;;;;;5112014;28;20513;-74
2022/01/26 12:13:03;;;;;;;46.93;28.77;;;2.40;99.90;;;;;;5112154;28;20453;-74
2022/01/26 12:15:33;;;;;;;41.87;27.10;;;2.50;99.90;;;;;;5111685;27;20696;-75
2022/01/26 12:18:16;;;;;;;51.07;28.07;;;2.40;99.90;;;;;;5111668;28;20556;-75
2022/01/26 12:32:23;;;;;;;37.87;23.67;;;2.10;99.90;;;;;;5111411;28;20589;-75
2022/01/26 12:35:01;;;;;;;41.70;25.87;;;2.10;99.90;;;;;;5111649;28;20502;-75
2022/01/26 12:37:40;;;;;;;42.60;25.43;;;2.00;99.90;;;;;;5111396;28;20460;-75
2022/01/26 12:43:06;;;;;;;38.20;26.70;;;2.30;99.90;;;;;;5111631;28;20433;-75
2022/01/26 12:45:34;;;;;;;48.47;28.27;;;2.30;99.90;;;;;;5111326;28;20450;-76
2022/01/26 12:48:01;;;;;;;37.53;26.40;;;2.40;99.90;;;;;;5111105;28;20462;-75
2022/01/26 12:50:29;;;;;;;33.33;23.90;;;2.40;99.90;;;;;;5111148;28;20844;-75
2022/01/26 12:52:57;;;;;;;40.67;26.73;;;2.60;99.90;;;;;;5111168;28;20459;-75
2022/01/26 12:55:26;;;;;;;41.87;27.03;;;2.60;99.90;;;;;;5111461;28;20439;-76
2022/01/26 12:57:54;;;;;;;35.90;23.50;;;2.50;99.90;;;;;;5111240;28;21008;-75
2022/01/26 13:00:23;;;;;;;36.60;26.17;;;2.40;99.90;;;;;;5111249;28;20535;-74
2022/01/26 13:02:51;;;;;;;36.60;24.03;;;2.50;99.90;;;;;;5111119;28;20826;-75
2022/01/26 13:05:23;;;;;;;35.70;24.00;;;2.50;99.90;;;;;;5110968;28;20871;-74
2022/01/26 13:08:01;;;;;;;31.80;23.50;;;2.50;99.90;;;;;;5111057;28;20476;-74
2022/01/26 13:10:28;;;;;;;35.80;22.43;;;2.60;99.90;;;;;;5110590;28;20533;-74
2022/01/26 13:12:55;;;;;;;40.80;26.23;;;2.70;99.90;;;;;;5110783;28;20548;-74
2022/01/26 13:15:40;;;;;;;34.47;23.80;;;2.80;99.90;;;;;;5110820;27;20481;-76
2022/01/26 13:18:19;;;;;;;41.43;25.57;;;2.80;99.90;;;;;;5110730;28;20456;-75
2022/01/26 13:21:06;;;;;;;32.07;23.20;;;3.00;99.90;;;;;;5110597;28;20443;-74
2022/01/26 13:23:47;;;;;;;39.23;24.17;;;3.00;99.90;;;;;;5110592;28;20460;-75
2022/01/26 13:26:22;;;;;;;32.13;23.47;;;2.90;99.90;;;;;;5110489;28;20456;-75
2022/01/26 13:29:02;;;;;;;34.57;23.57;;;2.90;99.90;;;;;;5110350;28;21019;-74
2022/01/26 13:32:02;;;;;;;28.57;22.63;;;2.80;99.90;;;;;;5110310;28;20853;-74
2022/01/26 13:34:51;;;;;;;34.87;23.00;;;2.80;99.90;;;;;;5110245;28;20435;-73
2022/01/26 13:37:27;;;;;;;34.50;24.00;;;2.60;99.90;;;;;;5110357;28;20455;-75
2022/01/26 13:40:09;;;;;;;35.37;24.27;;;2.80;99.90;;;;;;5110746;28;20456;-76
2022/01/26 13:45:47;;;;;;;37.20;22.10;;;2.70;99.90;;;;;;5110528;28;20420;-75
2022/01/26 13:51:07;;;;;;;38.13;24.93;;;2.30;99.90;;;;;;5110294;28;20477;-76
2022/01/26 13:53:46;;;;;;;38.23;25.03;;;2.20;99.90;;;;;;5110239;28;20549;-75
2022/01/26 13:56:18;;;;;;;32.73;23.30;;;2.20;99.90;;;;;;5110498;28;20680;-75
2022/01/26 14:01:25;;;;;;;35.73;24.80;;;2.10;99.90;;;;;;5108371;28;20441;-76
2022/01/26 14:03:55;;;;;;;31.47;22.53;;;2.20;99.90;;;;;;5110045;28;20500;-75
2022/01/26 14:06:22;;;;;;;34.63;25.60;;;2.20;99.90;;;;;;5110567;28;20929;-76
2022/01/26 14:08:49;;;;;;;36.47;23.37;;;2.10;99.90;;;;;;5110113;28;20447;-75
2022/01/26 14:11:17;;;;;;;36.60;25.37;;;2.00;99.90;;;;;;5115399;28;20674;-76
2022/01/26 14:13:45;;;;;;;32.90;24.33;;;2.10;99.90;;;;;;5121104;28;20445;-75
2022/01/26 14:16:15;;;;;;;37.33;23.37;;;2.00;99.90;;;;;;5110952;28;20472;-75
2022/01/26 14:19:03;;;;;;;32.97;24.60;;;2.10;99.90;;;;;;5110021;28;20536;-75
2022/01/26 14:22:17;;;;;;;33.00;24.83;;;2.10;99.90;;;;;;5109914;28;20929;-75
2022/01/26 14:25:03;;;;;;;37.20;23.37;;;2.00;99.90;;;;;;5109757;28;20524;-75
2022/01/26 14:27:38;;;;;;;30.93;24.30;;;1.90;99.90;;;;;;5110080;28;20509;-76
2022/01/26 14:30:17;;;;;;;30.63;20.20;;;1.90;99.90;;;;;;5109964;28;20454;-75
2022/01/26 14:33:25;;;;;;;31.13;21.63;;;1.90;99.90;;;;;;5109816;28;20480;-75
2022/01/26 14:36:18;;;;;;;27.57;21.43;;;1.90;99.90;;;;;;5109968;28;20456;-75
2022/01/26 14:53:29;;;;;;;28.23;22.33;;;1.70;99.90;;;;;;5113610;28;20497;-74
2022/01/26 15:34:57;;;;;;;36.13;24.03;;;1.50;99.90;;;;;;5112681;28;20429;-74
2022/01/26 15:40:26;;;;;;;27.87;20.63;;;1.50;99.90;;;;;;5112885;28;20783;-75
2022/01/26 15:51:09;;;;;;;23.63;19.73;;;1.50;99.90;;;;;;5112496;28;20428;-74
2022/01/26 15:59:22;;;;;;;28.30;20.27;;;1.60;99.90;;;;;;5112444;28;20578;-75
2022/01/26 16:04:54;;;;;;;29.37;22.27;;;1.40;99.90;;;;;;5112209;28;20574;-74
2022/01/26 16:07:27;;;;;;;25.90;22.17;;;1.50;99.90;;;;;;5112199;28;20438;-73
2022/01/26 16:12:53;;;;;;;29.70;21.47;;;1.60;99.90;;;;;;5112309;28;21051;-75
2022/01/26 16:21:16;;;;;;;31.93;21.20;;;1.60;99.90;;;;;;5088364;28;20534;-75
2022/01/26 16:37:45;;;;;;;31.53;21.67;;;1.40;99.90;;;;;;5091053;28;20932;-74
2022/01/26 17:21:16;;;;;;;25.53;19.03;;;1.60;99.90;;;;;;5090937;28;20905;-75
2022/01/26 17:24:52;;;;;;;33.57;21.77;;;1.70;99.90;;;;;;5090526;28;20453;-75
2022/01/26 17:46:57;;;;;;;34.50;22.80;;;1.50;99.90;;;;;;5089950;28;20441;-75
2022/01/26 17:55:21;;;;;;;36.40;21.73;;;1.60;99.90;;;;;;5090211;28;20558;-75
